If you wish to contribute or participate in the discussions about articles you are invited to join SKYbrary as a registered user

 Actions

Tajima

From SKYbrary Wiki

RJBT
Airport
ICAO: RJBT – IATA: TJH
Summary
Name Tajima
Region Asia and Pacific
Territory Japan JP.gif
Location Toyooka, Hogo Prefecture
Serving Toyooka
Elevation 176.174 m
578 ft176.174 m
Coordinates 35° 30' 58.50" N, 134° 47' 21.70" E
Runways
Designator Length Width Surface ROPS
1/19 1200 m3,937.008 ft
30 m98.425 ft
ASP yes/yes


METAR
Observation RJBT 160100Z 22005KT 180V260 CAVOK 15/00 Q1020
Station Tajima
Date/Time 16 April 2019 01:00:00
Wind direction 220°
Wind speed 05 kts
Lowest cloud amount clouds and visibility OK
Temperature 15°C
Dew point 0°C
Humidity 35%
QNH 1020 hPa
Weather condition n/a

Tajima Airport, also known as Kounotori Tajima Airport, is 2.6 nm4,815.2 m
4.815 km
15,797.9 ft
southwest of Toyooka, Hyogo Prefecture, Japan.

Climatology

Humid Sub-tropical climate (Köppen climate classification Cfa)

Maps

Terrain

Loading map...

Airport Layout

Loading map...


Accidents & Serious Incidents at or in vicinity of RJBT

None on SKYbrary